createdAt,value
2019-06-10T00:00:31.375Z,4.20
2019-06-10T00:01:08.164Z,4.10
2019-06-10T00:01:40.937Z,4.03
2019-06-10T00:02:15.305Z,4.55
2019-06-10T00:02:50.778Z,4.62
2019-06-10T00:03:24.814Z,4.00
2019-06-10T00:04:05.157Z,3.83
2019-06-10T00:05:21.698Z,4.10
2019-06-10T00:05:55.691Z,4.60
2019-06-10T00:06:31.119Z,3.98
2019-06-10T00:07:05.809Z,4.12
2019-06-10T00:07:41.152Z,4.35
2019-06-10T00:08:16.454Z,4.20
2019-06-10T00:08:50.607Z,4.37
2019-06-10T00:09:24.919Z,4.22
2019-06-10T00:10:02.162Z,3.98
2019-06-10T00:10:34.443Z,3.67
2019-06-10T00:11:08.461Z,3.92
2019-06-10T00:11:42.354Z,4.92
2019-06-10T00:12:15.882Z,4.12
2019-06-10T00:12:51.762Z,4.47
2019-06-10T00:13:25.409Z,3.87
2019-06-10T00:14:03.983Z,4.03
2019-06-10T00:14:38.478Z,3.90
2019-06-10T00:15:12.725Z,4.28
2019-06-10T00:15:46.278Z,3.92
2019-06-10T00:16:20.846Z,4.17
2019-06-10T00:16:54.970Z,3.30
2019-06-10T00:17:28.563Z,4.20
2019-06-10T00:18:26.478Z,3.80
2019-06-10T00:18:43.034Z,4.15
2019-06-10T00:19:13.622Z,3.50
2019-06-10T00:19:47.949Z,3.87
2019-06-10T00:20:21.872Z,3.98
2019-06-10T00:20:55.431Z,4.92
2019-06-10T00:21:31.617Z,4.20
2019-06-10T00:22:06.920Z,4.25
2019-06-10T00:22:41.019Z,4.28
2019-06-10T00:23:15.106Z,4.90
2019-06-10T00:23:51.612Z,3.90
2019-06-10T00:24:24.475Z,4.15
2019-06-10T00:24:59.547Z,3.65
2019-06-10T00:25:41.950Z,4.70
2019-06-10T00:26:16.233Z,5.20
2019-06-10T00:26:52.635Z,4.37
2019-06-10T00:27:26.801Z,3.70
2019-06-10T00:28:02.603Z,4.12
2019-06-10T00:28:36.073Z,4.20
2019-06-10T00:29:11.995Z,4.30
2019-06-10T00:29:45.806Z,3.80
2019-06-10T00:30:20.842Z,3.80
2019-06-10T00:30:55.111Z,4.55
2019-06-10T00:31:31.087Z,3.90
2019-06-10T00:32:06.531Z,4.05
2019-06-10T00:32:41.181Z,4.20
2019-06-10T00:33:15.013Z,4.42
2019-06-10T00:33:49.217Z,4.10
2019-06-10T00:34:23.170Z,3.67
2019-06-10T00:34:56.919Z,3.72
2019-06-10T00:35:32.519Z,3.87
2019-06-10T00:36:08.451Z,4.20
2019-06-10T00:36:41.878Z,4.90
2019-06-10T00:37:15.871Z,3.83
2019-06-10T00:37:51.188Z,4.75
2019-06-10T00:38:26.122Z,4.40
2019-06-10T00:39:02.430Z,4.00
2019-06-10T00:39:35.592Z,4.15
2019-06-10T00:40:13.744Z,4.30
2019-06-10T00:40:45.064Z,4.30
2019-06-10T00:41:21.951Z,4.67
2019-06-10T00:41:55.760Z,4.20
2019-06-10T00:42:31.502Z,4.22
2019-06-10T00:43:07.038Z,4.08
2019-06-10T00:43:41.287Z,4.30
2019-06-10T00:44:15.250Z,4.37
2019-06-10T00:44:50.893Z,4.00
2019-06-10T00:45:24.730Z,4.08
2019-06-10T00:45:59.988Z,4.05
2019-06-10T00:46:34.369Z,4.10
2019-06-10T00:47:09.285Z,3.70
2019-06-10T00:47:43.645Z,4.17
2019-06-10T00:48:26.052Z,4.35
2019-06-10T00:48:52.985Z,4.28
2019-06-10T00:49:26.821Z,4.30
2019-06-10T00:50:03.321Z,3.75
2019-06-10T00:50:36.053Z,3.80
2019-06-10T00:51:12.943Z,4.28
2019-06-10T00:51:45.912Z,3.98
2019-06-10T00:52:21.331Z,3.75
2019-06-10T00:52:55.125Z,3.72
2019-06-10T00:53:31.486Z,4.83
2019-06-10T00:54:05.330Z,4.15
2019-06-10T00:54:41.714Z,4.17
2019-06-10T00:55:15.930Z,5.25
2019-06-10T00:55:51.585Z,4.42
2019-06-10T00:56:25.629Z,3.83
2019-06-10T00:57:01.196Z,4.37
2019-06-10T00:57:34.903Z,4.47
2019-06-10T00:58:12.010Z,4.08
2019-06-10T00:58:44.612Z,4.60
2019-06-10T00:59:18.127Z,4.35
2019-06-10T00:59:52.146Z,3.95
2019-06-10T01:00:26.094Z,4.95
2019-06-10T01:01:01.146Z,4.80
2019-06-10T01:01:35.342Z,4.08
2019-06-10T01:02:12.524Z,4.15
2019-06-10T01:02:44.673Z,4.10
2019-06-10T01:03:20.768Z,4.62
2019-06-10T01:03:54.393Z,4.40
2019-06-10T01:04:27.990Z,4.60
2019-06-10T01:05:03.029Z,4.08
2019-06-10T01:05:37.113Z,4.60
2019-06-10T01:06:14.592Z,4.12
2019-06-10T01:06:46.483Z,4.05
2019-06-10T01:07:21.817Z,4.37
2019-06-10T01:07:55.689Z,4.53
2019-06-10T01:08:31.562Z,4.22
2019-06-10T01:09:07.243Z,3.90
2019-06-10T01:09:41.304Z,4.58
2019-06-10T01:10:15.801Z,4.67
2019-06-10T01:10:52.003Z,5.10
2019-06-10T01:11:27.114Z,4.62
2019-06-10T01:12:01.255Z,4.35
2019-06-10T01:12:35.422Z,4.95
2019-06-10T01:13:11.312Z,4.53
2019-06-10T01:13:44.736Z,4.80
2019-06-10T01:14:18.701Z,5.47
2019-06-10T01:14:52.282Z,4.40
2019-06-10T01:15:26.523Z,5.37
2019-06-10T01:16:01.643Z,5.20
2019-06-10T01:16:35.563Z,5.03
2019-06-10T01:17:11.844Z,4.60
2019-06-10T01:17:45.237Z,6.00
2019-06-10T01:18:38.310Z,4.85
2019-06-10T01:18:54.607Z,6.25
2019-06-10T01:19:30.953Z,5.25
2019-06-10T01:20:04.296Z,4.95
2019-06-10T01:20:41.298Z,5.80
2019-06-10T01:21:15.514Z,4.85
2019-06-10T01:21:51.139Z,5.78
2019-06-10T01:22:24.936Z,5.70
2019-06-10T01:22:58.921Z,5.60
2019-06-10T01:23:32.522Z,5.78
2019-06-10T01:24:07.053Z,4.95
2019-06-10T01:24:41.150Z,5.78
2019-06-10T01:25:15.086Z,4.97
2019-06-10T01:25:51.088Z,4.95
2019-06-10T01:26:25.161Z,4.80
2019-06-10T01:27:01.106Z,4.92
2019-06-10T01:27:34.486Z,4.97
2019-06-10T01:28:10.186Z,5.33
2019-06-10T01:28:43.746Z,4.80
2019-06-10T01:29:18.120Z,4.22
2019-06-10T01:29:52.223Z,4.47
2019-06-10T01:30:27.270Z,5.15
2019-06-10T01:31:01.464Z,4.30
2019-06-10T01:31:35.526Z,4.10
2019-06-10T01:32:11.431Z,5.08
2019-06-10T01:32:44.685Z,5.08
2019-06-10T01:33:21.077Z,4.30
2019-06-10T01:33:53.975Z,4.10
2019-06-10T01:34:27.858Z,4.20
2019-06-10T01:35:01.779Z,3.80
2019-06-10T01:35:35.360Z,4.15
2019-06-10T01:36:12.565Z,4.47
2019-06-10T01:36:44.896Z,4.72
2019-06-10T01:37:18.400Z,4.15
2019-06-10T01:37:52.282Z,4.55
2019-06-10T01:38:26.173Z,3.90
2019-06-10T01:39:01.561Z,4.50
2019-06-10T01:39:35.369Z,4.10
2019-06-10T01:40:12.945Z,4.50
2019-06-10T01:40:44.498Z,4.00
2019-06-10T01:41:18.411Z,4.53
2019-06-10T01:41:52.281Z,4.25
2019-06-10T01:42:25.901Z,4.75
2019-06-10T01:43:01.065Z,4.80
2019-06-10T01:43:35.210Z,4.78
2019-06-10T01:44:11.117Z,4.55
2019-06-10T01:44:44.338Z,4.83
2019-06-10T01:45:18.312Z,5.08
2019-06-10T01:45:51.827Z,5.00
2019-06-10T01:46:25.810Z,4.92
2019-06-10T01:47:00.996Z,4.80
2019-06-10T01:47:34.657Z,4.85
2019-06-10T01:48:08.840Z,4.40
2019-06-10T01:48:47.801Z,4.55
2019-06-10T01:49:18.218Z,5.58
2019-06-10T01:49:52.279Z,4.65
2019-06-10T01:50:26.154Z,4.75
2019-06-10T01:51:01.855Z,4.90
2019-06-10T01:51:35.511Z,5.10
2019-06-10T01:52:12.037Z,4.47
2019-06-10T01:52:44.803Z,5.10
2019-06-10T01:53:18.901Z,5.03
2019-06-10T01:53:52.975Z,5.28
2019-06-10T01:54:26.565Z,5.55
2019-06-10T01:55:01.539Z,4.75
2019-06-10T01:55:35.889Z,4.40
2019-06-10T01:56:10.380Z,4.60
2019-06-10T01:56:45.130Z,4.97
2019-06-10T01:57:21.246Z,4.95
2019-06-10T01:58:16.348Z,4.70
2019-06-10T01:58:51.371Z,4.62
2019-06-10T01:59:25.123Z,5.15
2019-06-10T02:00:00.828Z,4.55
2019-06-10T02:00:41.945Z,4.85
2019-06-10T02:01:30.545Z,4.42
2019-06-10T02:02:07.460Z,4.47
2019-06-10T02:02:44.583Z,3.95
2019-06-10T02:03:18.517Z,4.37
2019-06-10T02:03:52.382Z,5.15
2019-06-10T02:04:26.404Z,4.60
2019-06-10T02:05:01.532Z,5.20
2019-06-10T02:05:35.587Z,4.20
2019-06-10T02:06:15.683Z,4.03
2019-06-10T02:06:45.546Z,5.10
2019-06-10T02:07:22.766Z,5.20
2019-06-10T02:07:54.714Z,4.40
2019-06-10T02:08:31.370Z,4.75
2019-06-10T02:09:05.900Z,4.87
2019-06-10T02:09:41.092Z,4.67
2019-06-10T02:10:17.232Z,4.47
2019-06-10T02:10:51.040Z,5.05
2019-06-10T02:11:25.100Z,4.90
2019-06-10T02:12:02.006Z,5.40
2019-06-10T02:12:35.111Z,4.80
2019-06-10T02:13:12.077Z,4.70
2019-06-10T02:13:46.782Z,4.20
2019-06-10T02:14:24.204Z,4.85
2019-06-10T02:14:56.218Z,4.92
2019-06-10T02:15:31.489Z,4.75
2019-06-10T02:16:05.578Z,4.62
2019-06-10T02:16:41.509Z,5.30
2019-06-10T02:17:16.391Z,5.25
2019-06-10T02:17:51.026Z,4.70
2019-06-10T02:18:25.151Z,5.28
2019-06-10T02:19:01.460Z,4.80
2019-06-10T02:19:34.415Z,4.83
2019-06-10T02:20:10.009Z,5.25
2019-06-10T02:20:44.251Z,5.10
2019-06-10T02:21:19.165Z,5.30
2019-06-10T02:21:53.408Z,4.75
2019-06-10T02:22:27.458Z,5.17
2019-06-10T02:23:02.011Z,4.92
2019-06-10T02:23:36.088Z,4.60
2019-06-10T02:24:12.870Z,5.05
2019-06-10T02:24:45.222Z,5.20
2019-06-10T02:25:21.372Z,5.28
2019-06-10T02:25:55.058Z,5.35
2019-06-10T02:26:30.752Z,4.67
2019-06-10T02:27:04.858Z,5.10
2019-06-10T02:27:38.770Z,4.80
2019-06-10T02:28:14.630Z,4.70
2019-06-10T02:28:48.058Z,4.70
2019-06-10T02:29:23.614Z,5.28
2019-06-10T02:29:57.279Z,5.20
2019-06-10T02:30:44.059Z,5.17
2019-06-10T02:31:06.816Z,4.80
2019-06-10T02:31:43.181Z,5.37
2019-06-10T02:32:20.804Z,4.85
2019-06-10T02:32:52.401Z,4.78
2019-06-10T02:33:45.282Z,4.62
2019-06-10T02:35:14.300Z,4.40
2019-06-10T02:35:45.694Z,4.87
2019-06-10T02:36:18.207Z,4.70
2019-06-10T02:36:53.895Z,4.72
2019-06-10T02:37:32.118Z,4.37
2019-06-10T02:38:03.708Z,4.50
2019-06-10T02:38:39.548Z,5.00
2019-06-10T02:39:17.299Z,5.33
2019-06-10T02:39:48.708Z,4.40
2019-06-10T02:40:31.356Z,4.72
2019-06-10T02:40:57.948Z,4.65
2019-06-10T02:41:36.056Z,5.12
2019-06-10T02:42:17.282Z,3.92
2019-06-10T02:42:53.799Z,4.87
2019-06-10T02:43:32.114Z,5.10
2019-06-10T02:44:04.313Z,5.12
2019-06-10T02:44:38.514Z,5.22
2019-06-10T02:45:18.328Z,4.60
2019-06-10T02:45:52.915Z,5.00
2019-06-10T02:46:31.243Z,5.12
2019-06-10T02:47:03.319Z,4.70
2019-06-10T02:47:38.283Z,5.55
2019-06-10T02:48:13.710Z,5.10
2019-06-10T02:48:47.805Z,5.20
2019-06-10T02:49:42.724Z,4.95
2019-06-10T02:50:02.842Z,5.15
2019-06-10T02:50:45.767Z,4.72
2019-06-10T02:51:22.358Z,5.12
2019-06-10T02:51:55.092Z,4.83
2019-06-10T02:52:32.569Z,5.05
2019-06-10T02:53:04.659Z,5.00
2019-06-10T02:53:38.287Z,5.17
2019-06-10T02:54:15.767Z,5.08
2019-06-10T02:54:48.302Z,5.12
2019-06-10T02:55:30.076Z,4.65
2019-06-10T02:55:57.578Z,4.97
2019-06-10T02:56:36.128Z,5.10
2019-06-10T02:57:06.767Z,4.67
2019-06-10T02:57:44.757Z,4.90
2019-06-10T02:58:19.137Z,4.67
2019-06-10T02:58:53.525Z,4.17
2019-06-10T02:59:31.606Z,5.42
2019-06-10T03:00:06.543Z,5.30
2019-06-10T03:00:47.232Z,5.10
2019-06-10T03:01:16.706Z,4.45
2019-06-10T03:01:53.445Z,4.80
2019-06-10T03:02:31.211Z,4.95
2019-06-10T03:03:03.920Z,4.40
2019-06-10T03:03:43.728Z,4.67
2019-06-10T03:04:13.724Z,4.65
2019-06-10T03:04:47.959Z,4.25
2019-06-10T03:05:29.709Z,5.33
2019-06-10T03:05:57.264Z,4.90
2019-06-10T03:06:36.306Z,4.70
2019-06-10T03:07:06.815Z,4.40
2019-06-10T03:07:44.037Z,4.95
2019-06-10T03:08:16.751Z,4.80
2019-06-10T03:08:54.897Z,4.75
2019-06-10T03:09:31.781Z,4.40
2019-06-10T03:10:04.645Z,4.95
2019-06-10T03:10:38.453Z,5.35
2019-06-10T03:11:14.154Z,4.20
2019-06-10T03:11:47.754Z,6.00
2019-06-10T03:12:23.969Z,4.75
2019-06-10T03:12:57.107Z,5.10
2019-06-10T03:13:33.006Z,5.50
2019-06-10T03:14:06.691Z,4.80
2019-06-10T03:14:42.271Z,5.45
2019-06-10T03:15:16.002Z,5.90
2019-06-10T03:16:15.696Z,5.00
2019-06-10T03:16:53.241Z,5.00
2019-06-10T03:17:28.264Z,5.70
2019-06-10T03:18:02.468Z,5.15
2019-06-10T03:18:36.080Z,3.75
2019-06-10T03:19:10.062Z,4.90
2019-06-10T03:19:50.114Z,4.67
2019-06-10T03:20:20.004Z,4.17
2019-06-10T03:20:54.225Z,5.22
2019-06-10T03:21:28.555Z,5.05
2019-06-10T03:22:02.708Z,5.60
2019-06-10T03:22:37.021Z,4.92
2019-06-10T03:23:12.048Z,5.22
2019-06-10T03:23:48.177Z,4.75
2019-06-10T03:24:23.935Z,5.15
2019-06-10T03:24:57.673Z,5.65
2019-06-10T03:25:32.798Z,5.20
2019-06-10T03:26:06.904Z,4.67
2019-06-10T03:26:42.801Z,5.10
2019-06-10T03:27:16.393Z,4.70
2019-06-10T03:27:52.486Z,4.80
2019-06-10T03:28:45.642Z,5.10
2019-06-10T03:29:20.541Z,5.47
2019-06-10T03:29:54.888Z,5.50
2019-06-10T03:30:44.218Z,5.03
2019-06-10T03:31:05.708Z,6.17
2019-06-10T03:31:43.243Z,5.08
2019-06-10T03:32:17.669Z,5.05
2019-06-10T03:32:50.721Z,4.65
2019-06-10T03:33:34.553Z,4.78
2019-06-10T03:34:04.491Z,5.25
2019-06-10T03:34:41.707Z,5.00
2019-06-10T03:35:13.172Z,5.30
2019-06-10T03:35:47.150Z,5.03
2019-06-10T03:36:22.708Z,5.42
2019-06-10T03:36:56.423Z,4.58
2019-06-10T03:37:32.755Z,5.40
2019-06-10T03:38:05.630Z,5.05
2019-06-10T03:38:39.650Z,5.72
2019-06-10T03:39:13.547Z,4.45
2019-06-10T03:39:47.150Z,4.53
2019-06-10T03:40:23.521Z,5.47
2019-06-10T03:40:56.790Z,5.25
2019-06-10T03:41:32.146Z,4.90
2019-06-10T03:42:05.906Z,6.53
2019-06-10T03:42:39.915Z,4.97
2019-06-10T03:43:13.449Z,5.28
2019-06-10T03:43:47.367Z,6.00
2019-06-10T03:44:23.525Z,4.78
2019-06-10T03:44:56.534Z,4.95
2019-06-10T03:45:32.383Z,4.70
2019-06-10T03:46:06.109Z,5.42
2019-06-10T03:46:39.608Z,5.58
2019-06-10T03:47:13.513Z,5.42
2019-06-10T03:47:47.464Z,4.70
2019-06-10T03:48:23.323Z,4.78
2019-06-10T03:48:56.627Z,5.20
2019-06-10T03:49:32.152Z,4.65
2019-06-10T03:50:05.991Z,5.22
2019-06-10T03:50:39.957Z,5.15
2019-06-10T03:51:13.850Z,4.80
2019-06-10T03:51:47.386Z,5.37
2019-06-10T03:52:23.506Z,5.60
2019-06-10T03:52:56.893Z,5.22
2019-06-10T03:53:30.405Z,5.53
2019-06-10T03:54:04.332Z,5.25
2019-06-10T03:54:38.248Z,5.45
2019-06-10T03:55:12.332Z,4.70
2019-06-10T03:55:46.360Z,5.10
2019-06-10T03:56:23.242Z,5.30
2019-06-10T03:56:55.479Z,5.55
2019-06-10T03:57:29.311Z,5.35
2019-06-10T03:58:03.198Z,5.22
2019-06-10T03:58:36.773Z,4.80
2019-06-10T03:59:12.245Z,4.95
2019-06-10T03:59:46.485Z,5.65
2019-06-10T04:00:21.335Z,4.22
2019-06-10T04:00:56.058Z,5.03
2019-06-10T04:01:30.137Z,4.47
2019-06-10T04:02:04.135Z,4.80
2019-06-10T04:02:38.078Z,4.95
2019-06-10T04:03:12.185Z,5.00
2019-06-10T04:03:45.981Z,5.45
2019-06-10T04:04:22.405Z,5.53
2019-06-10T04:04:55.679Z,4.00
2019-06-10T04:05:29.184Z,4.58
2019-06-10T04:06:03.095Z,4.90
2019-06-10T04:06:36.974Z,5.10
2019-06-10T04:07:31.049Z,4.92
2019-06-10T04:08:05.214Z,4.03
2019-06-10T04:08:39.201Z,4.40
2019-06-10T04:09:12.768Z,4.08
2019-06-10T04:09:46.661Z,4.40
2019-06-10T04:10:24.385Z,4.90
2019-06-10T04:10:55.789Z,4.75
2019-06-10T04:11:32.303Z,5.12
2019-06-10T04:12:05.361Z,4.70
2019-06-10T04:12:38.953Z,4.42
2019-06-10T04:13:13.295Z,4.70
2019-06-10T04:13:47.322Z,4.60
2019-06-10T04:14:22.461Z,4.50
2019-06-10T04:14:56.628Z,4.40
2019-06-10T04:15:32.580Z,5.60
2019-06-10T04:16:05.831Z,4.45
2019-06-10T04:16:39.926Z,5.17
2019-06-10T04:17:13.820Z,4.17
2019-06-10T04:17:47.428Z,4.28
2019-06-10T04:18:24.195Z,4.72
2019-06-10T04:18:57.011Z,4.50
2019-06-10T04:19:32.579Z,4.85
2019-06-10T04:20:11.759Z,5.05
2019-06-10T04:20:42.910Z,4.25
2019-06-10T04:21:17.633Z,4.50
2019-06-10T04:21:53.184Z,4.17
2019-06-10T04:22:28.417Z,4.40
2019-06-10T04:23:02.808Z,4.30
2019-06-10T04:23:36.977Z,4.42
2019-06-10T04:24:12.850Z,3.67
2019-06-10T04:24:46.325Z,4.40
2019-06-10T04:25:23.199Z,4.20
2019-06-10T04:25:55.937Z,4.60
2019-06-10T04:26:48.570Z,3.83
2019-06-10T04:27:24.161Z,4.85
2019-06-10T04:27:58.189Z,4.15
2019-06-10T04:28:33.778Z,4.42
2019-06-10T04:29:07.321Z,3.83
2019-06-10T04:29:42.219Z,4.33
2019-06-10T04:30:16.692Z,5.35
2019-06-10T04:30:53.058Z,4.30
2019-06-10T04:31:27.975Z,3.75
2019-06-10T04:32:03.091Z,4.83
2019-06-10T04:32:37.458Z,4.55
2019-06-10T04:33:12.655Z,4.40
2019-06-10T04:33:46.466Z,3.92
2019-06-10T04:34:21.075Z,4.72
2019-06-10T04:34:57.168Z,5.17
2019-06-10T04:35:30.708Z,4.67
2019-06-10T04:36:04.724Z,4.70
2019-06-10T04:36:38.638Z,4.60
2019-06-10T04:37:12.478Z,4.90
2019-06-10T04:37:46.669Z,4.58
2019-06-10T04:38:22.944Z,4.40
2019-06-10T04:38:55.978Z,4.37
2019-06-10T04:39:29.878Z,4.90
2019-06-10T04:40:04.001Z,4.22
2019-06-10T04:40:37.526Z,4.03
2019-06-10T04:41:12.647Z,5.22
2019-06-10T04:41:46.809Z,4.60
2019-06-10T04:42:22.809Z,4.28
2019-06-10T04:42:55.938Z,4.40
2019-06-10T04:43:32.316Z,4.20
2019-06-10T04:44:05.120Z,4.20
2019-06-10T04:44:39.280Z,4.42
2019-06-10T04:45:13.192Z,4.85
2019-06-10T04:45:46.713Z,3.87
2019-06-10T04:46:22.949Z,4.70
2019-06-10T04:46:56.226Z,5.30
2019-06-10T04:47:29.746Z,4.85
2019-06-10T04:48:03.652Z,5.45
2019-06-10T04:48:37.620Z,4.65
2019-06-10T04:49:13.191Z,5.17
2019-06-10T04:49:46.867Z,5.25
2019-06-10T04:50:30.765Z,4.92
2019-06-10T04:50:56.086Z,6.55
2019-06-10T04:51:29.992Z,6.03
2019-06-10T04:52:03.887Z,6.33
2019-06-10T04:52:56.596Z,6.45
2019-06-10T04:53:32.626Z,5.67
2019-06-10T04:54:06.185Z,4.65
2019-06-10T04:54:42.011Z,6.50
2019-06-10T04:55:15.374Z,5.60
2019-06-10T04:55:49.277Z,6.05
2019-06-10T04:56:24.611Z,5.35
2019-06-10T04:56:58.422Z,6.35
2019-06-10T04:57:32.880Z,7.37
2019-06-10T04:58:06.630Z,7.58
2019-06-10T04:58:43.031Z,5.60
2019-06-10T04:59:16.304Z,6.10
2019-06-10T04:59:49.808Z,5.70
2019-06-10T05:00:26.002Z,5.35
2019-06-10T05:00:59.335Z,4.95
2019-06-10T05:01:33.494Z,6.83
2019-06-10T05:02:07.609Z,4.85
2019-06-10T05:02:43.147Z,6.45
2019-06-10T05:03:16.876Z,4.80
2019-06-10T05:03:52.689Z,4.80
2019-06-10T05:04:28.119Z,5.08
2019-06-10T05:05:02.929Z,5.53
2019-06-10T05:05:37.360Z,5.95
2019-06-10T05:06:12.319Z,5.55
2019-06-10T05:06:46.266Z,4.92
2019-06-10T05:07:21.608Z,5.20
2019-06-10T05:07:55.774Z,5.47
2019-06-10T05:08:29.628Z,5.15
2019-06-10T05:09:04.294Z,5.25
2019-06-10T05:09:38.527Z,5.47
2019-06-10T05:10:14.737Z,8.33
2019-06-10T05:10:49.956Z,6.33
2019-06-10T05:11:25.761Z,6.37
2019-06-10T05:11:59.090Z,5.72
2019-06-10T05:12:33.129Z,6.20
2019-06-10T05:13:06.934Z,5.53
2019-06-10T05:13:42.868Z,7.03
2019-06-10T05:14:16.246Z,5.42
2019-06-10T05:14:52.537Z,5.55
2019-06-10T05:15:28.497Z,6.08
2019-06-10T05:16:03.503Z,8.75
2019-06-10T05:16:36.740Z,6.58
2019-06-10T05:17:12.603Z,8.43
2019-06-10T05:17:45.911Z,6.30
2019-06-10T05:18:22.557Z,5.33
2019-06-10T05:18:55.108Z,6.87
2019-06-10T05:19:30.588Z,5.90
2019-06-10T05:20:05.779Z,6.00
2019-06-10T05:20:54.120Z,5.92
2019-06-10T05:21:15.651Z,5.60
2019-06-10T05:21:49.714Z,7.28
2019-06-10T05:22:25.397Z,6.87
2019-06-10T05:22:58.909Z,6.85
2019-06-10T05:23:33.217Z,5.67
2019-06-10T05:24:06.865Z,5.45
2019-06-10T05:24:42.421Z,6.75
2019-06-10T05:25:16.555Z,6.47
2019-06-10T05:25:52.735Z,9.18
2019-06-10T05:26:27.207Z,5.87
2019-06-10T05:27:02.086Z,5.45
2019-06-10T05:27:35.870Z,6.45
2019-06-10T05:28:12.149Z,6.53
2019-06-10T05:28:45.667Z,7.97
2019-06-10T05:29:20.192Z,6.20
2019-06-10T05:29:55.031Z,5.50
2019-06-10T05:30:29.567Z,6.22
2019-06-10T05:31:04.429Z,5.55
2019-06-10T05:31:38.454Z,5.97
2019-06-10T05:32:12.806Z,6.03
2019-06-10T05:32:46.647Z,7.47
2019-06-10T05:33:22.817Z,9.55
2019-06-10T05:33:56.226Z,6.37
2019-06-10T05:34:31.647Z,6.62
2019-06-10T05:35:05.542Z,6.75
2019-06-10T05:35:39.565Z,6.87
2019-06-10T05:36:13.438Z,6.20
2019-06-10T05:36:47.390Z,5.53
2019-06-10T05:37:23.754Z,6.75
2019-06-10T05:37:56.634Z,6.20
2019-06-10T05:38:34.884Z,6.85
2019-06-10T05:39:06.858Z,6.28
2019-06-10T05:39:42.282Z,5.53
2019-06-10T05:40:16.047Z,6.30
2019-06-10T05:40:51.993Z,6.70
2019-06-10T05:41:27.881Z,5.70
2019-06-10T05:42:03.177Z,7.40
2019-06-10T05:42:36.689Z,8.18
2019-06-10T05:43:12.906Z,7.20
2019-06-10T05:43:45.837Z,7.17
2019-06-10T05:44:19.727Z,6.10
2019-06-10T05:44:53.234Z,6.83
2019-06-10T05:45:27.964Z,7.70
2019-06-10T05:46:15.211Z,6.70
2019-06-10T05:46:48.756Z,10.95
2019-06-10T05:47:24.992Z,6.90
2019-06-10T05:47:58.249Z,7.97
2019-06-10T05:48:33.601Z,6.30
2019-06-10T05:49:07.398Z,6.70
2019-06-10T05:49:43.101Z,6.80
2019-06-10T05:50:16.813Z,8.28
2019-06-10T05:51:02.051Z,7.58
2019-06-10T05:51:27.563Z,8.35
2019-06-10T05:52:02.027Z,7.67
2019-06-10T05:52:36.079Z,7.47
2019-06-10T05:53:13.006Z,8.38
2019-06-10T05:53:46.523Z,8.18
2019-06-10T05:54:23.028Z,6.53
2019-06-10T05:54:56.472Z,6.40
2019-06-10T05:55:32.223Z,8.30
2019-06-10T05:56:06.508Z,9.48
2019-06-10T05:56:40.441Z,9.08
2019-06-10T05:57:13.947Z,8.45
2019-06-10T05:57:47.838Z,7.20
2019-06-10T05:58:23.533Z,7.22
2019-06-10T05:58:57.052Z,7.35
2019-06-10T05:59:31.491Z,7.85
2019-06-10T06:00:13.870Z,7.05
2019-06-10T06:00:43.492Z,6.90
2019-06-10T06:01:17.383Z,6.25
2019-06-10T06:01:53.837Z,6.08
2019-06-10T06:02:27.720Z,6.40
2019-06-10T06:03:02.803Z,7.00
2019-06-10T06:03:56.052Z,6.28
2019-06-10T06:04:30.555Z,7.03
2019-06-10T06:05:05.928Z,6.75
2019-06-10T06:05:39.849Z,6.28
2019-06-10T06:06:13.403Z,6.10
2019-06-10T06:06:47.321Z,7.10
2019-06-10T06:07:22.274Z,6.53
2019-06-10T06:08:04.854Z,6.95
2019-06-10T06:08:33.329Z,6.83
2019-06-10T06:09:07.373Z,8.15
2019-06-10T06:09:42.695Z,7.17
2019-06-10T06:10:16.578Z,6.75
2019-06-10T06:10:52.632Z,9.30
2019-06-10T06:11:25.862Z,7.95
2019-06-10T06:12:02.523Z,6.37
2019-06-10T06:12:36.118Z,7.12
2019-06-10T06:13:09.651Z,6.40
2019-06-10T06:13:43.618Z,7.20
2019-06-10T06:14:17.525Z,6.72
2019-06-10T06:14:52.756Z,7.15
2019-06-10T06:15:27.459Z,6.90
2019-06-10T06:16:03.354Z,6.62
2019-06-10T06:16:38.167Z,7.67
2019-06-10T06:17:12.806Z,6.50
2019-06-10T06:18:03.265Z,6.62
2019-06-10T06:18:23.273Z,6.85
2019-06-10T06:18:57.158Z,6.25
2019-06-10T06:19:35.024Z,6.70
2019-06-10T06:20:06.270Z,6.67
2019-06-10T06:20:40.185Z,6.30
2019-06-10T06:21:25.207Z,6.55
2019-06-10T06:21:49.449Z,7.33
2019-06-10T06:22:23.399Z,7.17
2019-06-10T06:22:57.397Z,7.17
2019-06-10T06:23:33.370Z,6.87
2019-06-10T06:24:06.606Z,7.17
2019-06-10T06:24:42.646Z,6.97
2019-06-10T06:25:16.274Z,6.85
2019-06-10T06:25:52.979Z,6.53
2019-06-10T06:26:26.403Z,6.37
2019-06-10T06:27:02.482Z,5.95
2019-06-10T06:27:37.091Z,7.37
2019-06-10T06:28:13.669Z,6.70
2019-06-10T06:28:47.579Z,6.75
2019-06-10T06:29:22.246Z,7.00
2019-06-10T06:29:56.535Z,8.00
2019-06-10T06:30:30.185Z,7.45
2019-06-10T06:31:04.310Z,6.45
2019-06-10T06:31:38.326Z,7.30
2019-06-10T06:32:13.176Z,6.67
2019-06-10T06:32:47.244Z,7.37
2019-06-10T06:33:22.125Z,6.35
2019-06-10T06:33:55.781Z,6.90
2019-06-10T06:34:30.846Z,7.15
2019-06-10T06:35:06.046Z,6.30
2019-06-10T06:35:45.550Z,7.95
2019-06-10T06:36:15.264Z,6.45
2019-06-10T06:36:49.239Z,6.35
2019-06-10T06:37:23.241Z,6.08
2019-06-10T06:37:57.238Z,6.30
2019-06-10T06:38:33.537Z,6.00
2019-06-10T06:39:07.089Z,6.60
2019-06-10T06:39:42.931Z,6.70
2019-06-10T06:40:16.689Z,7.25
2019-06-10T06:40:53.733Z,7.40
2019-06-10T06:41:27.416Z,7.87
2019-06-10T06:42:02.269Z,7.30
2019-06-10T06:42:37.038Z,7.92
2019-06-10T06:43:12.122Z,8.00
2019-06-10T06:43:46.267Z,7.90
2019-06-10T06:44:19.779Z,7.17
2019-06-10T06:44:53.684Z,7.05
2019-06-10T06:45:27.848Z,7.05
2019-06-10T06:46:02.523Z,7.15
2019-06-10T06:46:39.510Z,7.45
2019-06-10T06:47:13.188Z,7.75
2019-06-10T06:47:47.048Z,6.85
2019-06-10T06:48:22.736Z,6.97
2019-06-10T06:48:56.758Z,7.30
2019-06-10T06:49:32.452Z,7.25
2019-06-10T06:50:06.148Z,6.72
2019-06-10T06:50:57.328Z,6.87
2019-06-10T06:51:15.493Z,7.50
2019-06-10T06:51:55.154Z,7.12
2019-06-10T06:52:46.551Z,5.90
2019-06-10T06:53:19.801Z,6.95
2019-06-10T06:53:45.331Z,6.10
2019-06-10T06:54:12.647Z,7.35
2019-06-10T06:54:46.371Z,7.65
2019-06-10T06:55:20.331Z,6.45
2019-06-10T06:55:56.004Z,6.90
2019-06-10T06:57:26.383Z,6.45
2019-06-10T06:58:00.353Z,6.62
2019-06-10T06:58:36.694Z,7.03
2019-06-10T06:59:09.862Z,6.78
2019-06-10T06:59:43.752Z,6.95
2019-06-10T07:00:38.145Z,7.28
2019-06-10T07:01:05.299Z,7.62
2019-06-10T07:01:29.686Z,6.55
2019-06-10T07:02:04.820Z,6.67
2019-06-10T07:02:38.828Z,7.15
2019-06-10T07:03:13.901Z,6.90
2019-06-10T07:03:47.806Z,7.30
2019-06-10T07:04:23.581Z,7.47
2019-06-10T07:04:57.127Z,7.72
2019-06-10T07:05:34.283Z,5.95
2019-06-10T07:06:08.805Z,6.65
2019-06-10T07:06:43.336Z,6.00
2019-06-10T07:07:22.223Z,6.45
2019-06-10T07:07:56.545Z,7.85
2019-06-10T07:08:33.313Z,6.95
2019-06-10T07:09:08.373Z,8.00
2019-06-10T07:09:43.746Z,7.28
2019-06-10T07:10:17.681Z,6.50
2019-06-10T07:10:52.306Z,6.65
2019-06-10T07:11:32.921Z,9.43
2019-06-10T07:12:05.747Z,7.28
2019-06-10T07:12:43.308Z,6.78
2019-06-10T07:13:15.889Z,7.50
2019-06-10T07:13:53.290Z,7.00
2019-06-10T07:14:27.358Z,6.75
2019-06-10T07:15:01.373Z,6.65
2019-06-10T07:15:42.224Z,6.50
2019-06-10T07:16:15.782Z,6.37
2019-06-10T07:16:49.325Z,6.47
2019-06-10T07:17:23.280Z,7.53
2019-06-10T07:17:57.372Z,6.78
2019-06-10T07:19:18.292Z,7.03
2019-06-10T07:19:53.007Z,6.47
2019-06-10T07:20:27.135Z,6.12
2019-06-10T07:21:02.657Z,6.85
2019-06-10T07:21:55.780Z,6.75
2019-06-10T07:22:15.896Z,8.55
2019-06-10T07:22:47.242Z,6.78
2019-06-10T07:23:22.518Z,7.15
2019-06-10T07:23:56.806Z,7.08
2019-06-10T07:24:32.665Z,6.83
2019-06-10T07:25:06.715Z,7.10
2019-06-10T07:25:45.499Z,6.28
2019-06-10T07:26:16.287Z,6.72
2019-06-10T07:26:54.582Z,6.62
2019-06-10T07:27:25.828Z,6.72
2019-06-10T07:28:01.920Z,8.20
2019-06-10T07:28:37.511Z,6.62
2019-06-10T07:29:13.239Z,6.12
2019-06-10T07:29:47.286Z,6.75
2019-06-10T07:30:23.004Z,7.10
2019-06-10T07:30:57.179Z,6.45
2019-06-10T07:31:33.596Z,6.50
2019-06-10T07:32:06.391Z,7.28
2019-06-10T07:32:41.545Z,7.78
2019-06-10T07:33:16.510Z,6.08
2019-06-10T07:33:52.565Z,6.67
2019-06-10T07:34:26.269Z,6.58
2019-06-10T07:34:59.826Z,6.58
2019-06-10T07:35:34.553Z,6.60
2019-06-10T07:36:09.423Z,7.50
2019-06-10T07:36:45.500Z,6.90
2019-06-10T07:37:20.431Z,6.53
2019-06-10T07:37:54.534Z,6.42
2019-06-10T07:38:28.028Z,6.08
2019-06-10T07:39:03.515Z,6.55
2019-06-10T07:39:38.385Z,7.55
2019-06-10T07:40:13.302Z,6.75
2019-06-10T07:40:47.272Z,6.72
2019-06-10T07:41:23.197Z,6.50
2019-06-10T07:41:56.747Z,7.42
2019-06-10T07:42:32.859Z,5.72
2019-06-10T07:43:06.302Z,6.28
2019-06-10T07:43:46.197Z,6.20
2019-06-10T07:44:15.582Z,6.00
2019-06-10T07:44:49.491Z,6.17
2019-06-10T07:45:23.014Z,6.50
2019-06-10T07:45:56.908Z,6.33
2019-06-10T07:46:33.108Z,6.35
2019-06-10T07:47:06.567Z,6.80
2019-06-10T07:47:41.740Z,6.22
2019-06-10T07:48:16.617Z,6.65
2019-06-10T07:48:53.571Z,6.67